sensor_id;sensor_type;location;lat;lon;timestamp;pressure;altitude;pressure_sealevel;temperature;humidity
29903;BME280;30288;50.514;9.678;2023-05-03T00:01:12;99770.44;;;1.98;100.00
29903;BME280;30288;50.514;9.678;2023-05-03T00:03:18;99769.59;;;1.98;100.00
29903;BME280;30288;50.514;9.678;2023-05-03T00:05:25;99766.91;;;1.89;100.00
29903;BME280;30288;50.514;9.678;2023-05-03T00:07:33;99775.50;;;2.03;100.00
29903;BME280;30288;50.514;9.678;2023-05-03T00:09:39;99770.69;;;2.09;100.00
29903;BME280;30288;50.514;9.678;2023-05-03T00:11:44;99772.44;;;2.13;100.00
29903;BME280;30288;50.514;9.678;2023-05-03T00:13:49;99766.63;;;2.14;100.00
29903;BME280;30288;50.514;9.678;2023-05-03T00:15:54;99771.34;;;2.02;100.00
29903;BME280;30288;50.514;9.678;2023-05-03T00:17:59;99771.41;;;2.05;100.00
29903;BME280;30288;50.514;9.678;2023-05-03T00:20:07;99772.22;;;2.04;100.00
29903;BME280;30288;50.514;9.678;2023-05-03T00:22:13;99767.97;;;2.00;100.00
29903;BME280;30288;50.514;9.678;2023-05-03T00:24:21;99760.50;;;1.98;100.00
29903;BME280;30288;50.514;9.678;2023-05-03T00:26:27;99768.91;;;2.05;100.00
29903;BME280;30288;50.514;9.678;2023-05-03T00:28:32;99764.03;;;2.08;100.00
29903;BME280;30288;50.514;9.678;2023-05-03T00:30:37;99764.78;;;2.05;100.00
29903;BME280;30288;50.514;9.678;2023-05-03T00:32:42;99764.78;;;2.04;100.00
29903;BME280;30288;50.514;9.678;2023-05-03T00:34:52;99762.78;;;1.91;100.00
29903;BME280;30288;50.514;9.678;2023-05-03T00:36:57;99761.19;;;1.93;100.00
29903;BME280;30288;50.514;9.678;2023-05-03T00:39:03;99756.81;;;1.83;100.00
29903;BME280;30288;50.514;9.678;2023-05-03T00:41:11;99756.06;;;1.87;100.00
29903;BME280;30288;50.514;9.678;2023-05-03T00:43:17;99755.94;;;1.81;100.00
29903;BME280;30288;50.514;9.678;2023-05-03T00:45:22;99752.16;;;1.95;100.00
29903;BME280;30288;50.514;9.678;2023-05-03T00:47:27;99747.25;;;1.98;100.00
29903;BME280;30288;50.514;9.678;2023-05-03T00:49:33;99748.09;;;2.00;100.00
29903;BME280;30288;50.514;9.678;2023-05-03T00:51:38;99738.59;;;1.82;100.00
29903;BME280;30288;50.514;9.678;2023-05-03T00:53:44;99739.16;;;1.70;100.00
29903;BME280;30288;50.514;9.678;2023-05-03T00:55:52;99745.06;;;1.41;100.00
29903;BME280;30288;50.514;9.678;2023-05-03T00:58:01;99741.06;;;1.15;100.00
29903;BME280;30288;50.514;9.678;2023-05-03T01:00:08;99739.47;;;1.17;100.00
29903;BME280;30288;50.514;9.678;2023-05-03T01:02:15;99737.13;;;1.21;100.00
29903;BME280;30288;50.514;9.678;2023-05-03T01:04:21;99741.06;;;1.46;100.00
29903;BME280;30288;50.514;9.678;2023-05-03T01:06:34;99742.31;;;1.30;100.00
29903;BME280;30288;50.514;9.678;2023-05-03T01:08:46;99745.50;;;1.26;100.00
29903;BME280;30288;50.514;9.678;2023-05-03T01:11:01;99744.44;;;1.17;100.00
29903;BME280;30288;50.514;9.678;2023-05-03T01:13:20;99731.00;;;1.09;100.00
29903;BME280;30288;50.514;9.678;2023-05-03T01:15:57;99732.53;;;1.04;100.00
29903;BME280;30288;50.514;9.678;2023-05-03T01:18:12;99728.66;;;1.13;100.00
29903;BME280;30288;50.514;9.678;2023-05-03T01:20:22;99734.97;;;1.02;100.00
29903;BME280;30288;50.514;9.678;2023-05-03T01:22:42;99741.31;;;0.93;100.00
29903;BME280;30288;50.514;9.678;2023-05-03T01:24:59;99747.06;;;0.92;100.00
29903;BME280;30288;50.514;9.678;2023-05-03T01:27:05;99745.50;;;0.94;100.00
29903;BME280;30288;50.514;9.678;2023-05-03T01:29:10;99745.66;;;1.00;100.00
29903;BME280;30288;50.514;9.678;2023-05-03T01:31:21;99750.50;;;0.97;100.00
29903;BME280;30288;50.514;9.678;2023-05-03T01:33:39;99743.28;;;1.04;100.00
29903;BME280;30288;50.514;9.678;2023-05-03T01:35:53;99736.53;;;0.99;100.00
29903;BME280;30288;50.514;9.678;2023-05-03T01:38:04;99732.84;;;1.16;100.00
29903;BME280;30288;50.514;9.678;2023-05-03T01:40:13;99731.31;;;1.21;100.00
29903;BME280;30288;50.514;9.678;2023-05-03T01:42:22;99737.56;;;1.07;100.00
29903;BME280;30288;50.514;9.678;2023-05-03T01:44:28;99729.09;;;0.99;100.00
29903;BME280;30288;50.514;9.678;2023-05-03T01:46:34;99736.72;;;1.06;100.00
29903;BME280;30288;50.514;9.678;2023-05-03T01:48:46;99734.34;;;1.11;100.00
29903;BME280;30288;50.514;9.678;2023-05-03T01:50:52;99728.38;;;1.03;100.00
29903;BME280;30288;50.514;9.678;2023-05-03T01:52:58;99730.28;;;1.13;100.00
29903;BME280;30288;50.514;9.678;2023-05-03T01:55:05;99728.28;;;1.00;100.00
29903;BME280;30288;50.514;9.678;2023-05-03T01:57:13;99726.50;;;0.94;100.00
29903;BME280;30288;50.514;9.678;2023-05-03T01:59:18;99741.19;;;0.88;100.00
29903;BME280;30288;50.514;9.678;2023-05-03T02:01:23;99742.47;;;0.74;100.00
29903;BME280;30288;50.514;9.678;2023-05-03T02:03:29;99749.59;;;0.63;100.00
29903;BME280;30288;50.514;9.678;2023-05-03T02:05:34;99754.13;;;0.48;100.00
29903;BME280;30288;50.514;9.678;2023-05-03T02:07:39;99754.97;;;0.49;100.00
29903;BME280;30288;50.514;9.678;2023-05-03T02:09:44;99765.72;;;0.49;100.00
29903;BME280;30288;50.514;9.678;2023-05-03T02:11:51;99762.53;;;0.53;100.00
29903;BME280;30288;50.514;9.678;2023-05-03T02:13:59;99759.69;;;0.69;100.00
29903;BME280;30288;50.514;9.678;2023-05-03T02:16:05;99769.81;;;0.77;100.00
29903;BME280;30288;50.514;9.678;2023-05-03T02:18:10;99765.09;;;0.84;100.00
29903;BME280;30288;50.514;9.678;2023-05-03T02:20:18;99763.31;;;0.80;100.00
29903;BME280;30288;50.514;9.678;2023-05-03T02:22:23;99760.25;;;0.91;100.00
29903;BME280;30288;50.514;9.678;2023-05-03T02:24:29;99769.38;;;0.90;100.00
29903;BME280;30288;50.514;9.678;2023-05-03T02:26:37;99761.94;;;0.92;100.00
29903;BME280;30288;50.514;9.678;2023-05-03T02:28:44;99761.88;;;0.88;100.00
29903;BME280;30288;50.514;9.678;2023-05-03T02:30:52;99766.66;;;0.82;100.00
29903;BME280;30288;50.514;9.678;2023-05-03T02:32:58;99767.56;;;0.84;100.00
29903;BME280;30288;50.514;9.678;2023-05-03T02:35:05;99768.59;;;0.93;100.00
29903;BME280;30288;50.514;9.678;2023-05-03T02:37:10;99770.00;;;0.83;100.00
29903;BME280;30288;50.514;9.678;2023-05-03T02:39:16;99766.75;;;0.85;100.00
29903;BME280;30288;50.514;9.678;2023-05-03T02:41:21;99761.81;;;0.85;100.00
29903;BME280;30288;50.514;9.678;2023-05-03T02:43:27;99761.50;;;0.75;100.00
29903;BME280;30288;50.514;9.678;2023-05-03T02:45:34;99758.00;;;0.68;100.00
29903;BME280;30288;50.514;9.678;2023-05-03T02:47:42;99756.06;;;0.58;100.00
29903;BME280;30288;50.514;9.678;2023-05-03T02:49:49;99757.16;;;0.38;100.00
29903;BME280;30288;50.514;9.678;2023-05-03T02:51:55;99752.63;;;0.53;100.00
29903;BME280;30288;50.514;9.678;2023-05-03T02:54:00;99759.97;;;0.50;100.00
29903;BME280;30288;50.514;9.678;2023-05-03T02:56:08;99754.31;;;0.26;100.00
29903;BME280;30288;50.514;9.678;2023-05-03T02:58:14;99763.66;;;0.08;100.00
29903;BME280;30288;50.514;9.678;2023-05-03T03:00:19;99764.09;;;-0.06;100.00
29903;BME280;30288;50.514;9.678;2023-05-03T03:02:25;99760.22;;;0.03;100.00
29903;BME280;30288;50.514;9.678;2023-05-03T03:04:33;99767.19;;;0.14;100.00
29903;BME280;30288;50.514;9.678;2023-05-03T03:06:38;99768.28;;;0.24;100.00
29903;BME280;30288;50.514;9.678;2023-05-03T03:08:43;99768.00;;;0.15;100.00
29903;BME280;30288;50.514;9.678;2023-05-03T03:10:49;99763.22;;;0.21;100.00
29903;BME280;30288;50.514;9.678;2023-05-03T03:12:54;99761.19;;;0.08;100.00
29903;BME280;30288;50.514;9.678;2023-05-03T03:15:08;99765.88;;;-0.02;100.00
29903;BME280;30288;50.514;9.678;2023-05-03T03:17:14;99770.56;;;-0.09;100.00
29903;BME280;30288;50.514;9.678;2023-05-03T03:19:19;99774.09;;;-0.03;100.00
29903;BME280;30288;50.514;9.678;2023-05-03T03:21:27;99775.97;;;0.05;100.00
29903;BME280;30288;50.514;9.678;2023-05-03T03:23:33;99774.56;;;0.13;100.00
29903;BME280;30288;50.514;9.678;2023-05-03T03:25:41;99779.59;;;0.16;100.00
29903;BME280;30288;50.514;9.678;2023-05-03T03:27:46;99772.28;;;0.20;100.00
29903;BME280;30288;50.514;9.678;2023-05-03T03:29:51;99776.13;;;0.11;100.00
29903;BME280;30288;50.514;9.678;2023-05-03T03:31:56;99775.72;;;-0.03;100.00
29903;BME280;30288;50.514;9.678;2023-05-03T03:34:02;99781.56;;;-0.01;100.00
29903;BME280;30288;50.514;9.678;2023-05-03T03:36:08;99784.41;;;-0.16;100.00
29903;BME280;30288;50.514;9.678;2023-05-03T03:38:19;99784.44;;;-0.14;100.00
29903;BME280;30288;50.514;9.678;2023-05-03T03:40:31;99788.75;;;-0.09;100.00
29903;BME280;30288;50.514;9.678;2023-05-03T03:42:36;99788.28;;;-0.24;100.00
29903;BME280;30288;50.514;9.678;2023-05-03T03:44:41;99788.38;;;-0.21;100.00
29903;BME280;30288;50.514;9.678;2023-05-03T03:46:47;99790.06;;;-0.20;100.00
29903;BME280;30288;50.514;9.678;2023-05-03T03:48:53;99787.59;;;-0.20;100.00
29903;BME280;30288;50.514;9.678;2023-05-03T03:51:01;99789.00;;;-0.26;100.00
29903;BME280;30288;50.514;9.678;2023-05-03T03:53:12;99781.22;;;-0.37;100.00
29903;BME280;30288;50.514;9.678;2023-05-03T03:55:21;99786.59;;;-0.25;100.00
29903;BME280;30288;50.514;9.678;2023-05-03T03:57:28;99787.81;;;-0.12;100.00
29903;BME280;30288;50.514;9.678;2023-05-03T03:59:33;99788.38;;;-0.21;100.00
29903;BME280;30288;50.514;9.678;2023-05-03T04:01:38;99782.00;;;-0.13;100.00
29903;BME280;30288;50.514;9.678;2023-05-03T04:03:45;99782.22;;;-0.07;100.00
29903;BME280;30288;50.514;9.678;2023-05-03T04:05:51;99774.00;;;-0.06;100.00
29903;BME280;30288;50.514;9.678;2023-05-03T04:07:57;99779.41;;;-0.17;100.00
29903;BME280;30288;50.514;9.678;2023-05-03T04:10:06;99778.56;;;-0.18;100.00
29903;BME280;30288;50.514;9.678;2023-05-03T04:12:16;99779.16;;;-0.25;100.00
29903;BME280;30288;50.514;9.678;2023-05-03T04:14:22;99782.50;;;0.03;100.00
29903;BME280;30288;50.514;9.678;2023-05-03T04:16:27;99786.88;;;-0.16;100.00
29903;BME280;30288;50.514;9.678;2023-05-03T04:18:35;99785.09;;;-0.20;100.00
29903;BME280;30288;50.514;9.678;2023-05-03T04:20:42;99795.47;;;-0.05;100.00
29903;BME280;30288;50.514;9.678;2023-05-03T04:22:49;99788.94;;;-0.03;100.00
29903;BME280;30288;50.514;9.678;2023-05-03T04:24:58;99789.13;;;0.04;100.00
29903;BME280;30288;50.514;9.678;2023-05-03T04:27:05;99796.13;;;0.17;100.00
29903;BME280;30288;50.514;9.678;2023-05-03T04:29:15;99791.72;;;0.35;100.00
29903;BME280;30288;50.514;9.678;2023-05-03T04:31:21;99809.88;;;0.34;100.00
29903;BME280;30288;50.514;9.678;2023-05-03T04:33:28;99806.03;;;0.17;100.00
29903;BME280;30288;50.514;9.678;2023-05-03T04:35:37;99807.75;;;0.18;100.00
29903;BME280;30288;50.514;9.678;2023-05-03T04:37:46;99808.00;;;0.27;100.00
29903;BME280;30288;50.514;9.678;2023-05-03T04:39:55;99805.59;;;0.28;100.00
29903;BME280;30288;50.514;9.678;2023-05-03T04:42:01;99809.50;;;0.22;100.00
29903;BME280;30288;50.514;9.678;2023-05-03T04:44:06;99802.94;;;0.24;100.00
29903;BME280;30288;50.514;9.678;2023-05-03T04:46:14;99806.59;;;0.35;100.00
29903;BME280;30288;50.514;9.678;2023-05-03T04:48:20;99801.66;;;0.35;100.00
29903;BME280;30288;50.514;9.678;2023-05-03T04:50:26;99808.47;;;0.42;100.00
29903;BME280;30288;50.514;9.678;2023-05-03T04:52:31;99810.91;;;0.69;100.00
29903;BME280;30288;50.514;9.678;2023-05-03T04:54:36;99804.75;;;0.84;100.00
29903;BME280;30288;50.514;9.678;2023-05-03T04:56:41;99803.38;;;0.96;100.00
29903;BME280;30288;50.514;9.678;2023-05-03T04:58:51;99801.84;;;0.99;100.00
29903;BME280;30288;50.514;9.678;2023-05-03T05:00:57;99803.31;;;0.93;100.00
29903;BME280;30288;50.514;9.678;2023-05-03T05:03:08;99806.09;;;1.03;100.00
29903;BME280;30288;50.514;9.678;2023-05-03T05:05:13;99798.06;;;1.12;100.00
29903;BME280;30288;50.514;9.678;2023-05-03T05:07:22;99803.06;;;1.13;100.00
29903;BME280;30288;50.514;9.678;2023-05-03T05:09:28;99810.88;;;1.27;100.00
29903;BME280;30288;50.514;9.678;2023-05-03T05:11:36;99811.53;;;1.21;100.00
29903;BME280;30288;50.514;9.678;2023-05-03T05:13:42;99809.91;;;1.22;100.00
29903;BME280;30288;50.514;9.678;2023-05-03T05:15:47;99806.66;;;1.24;100.00
29903;BME280;30288;50.514;9.678;2023-05-03T05:17:52;99815.91;;;1.30;100.00
29903;BME280;30288;50.514;9.678;2023-05-03T05:20:00;99819.34;;;1.35;100.00
29903;BME280;30288;50.514;9.678;2023-05-03T05:22:09;99814.63;;;1.44;100.00
29903;BME280;30288;50.514;9.678;2023-05-03T05:24:20;99818.13;;;1.52;100.00
29903;BME280;30288;50.514;9.678;2023-05-03T05:26:26;99815.00;;;1.59;100.00
29903;BME280;30288;50.514;9.678;2023-05-03T05:28:31;99819.28;;;1.65;100.00
29903;BME280;30288;50.514;9.678;2023-05-03T05:30:37;99823.72;;;1.76;100.00
29903;BME280;30288;50.514;9.678;2023-05-03T05:32:42;99824.03;;;1.89;100.00
29903;BME280;30288;50.514;9.678;2023-05-03T05:34:48;99812.63;;;1.97;100.00
29903;BME280;30288;50.514;9.678;2023-05-03T05:37:02;99811.16;;;2.05;100.00
29903;BME280;30288;50.514;9.678;2023-05-03T05:39:09;99814.56;;;2.10;100.00
29903;BME280;30288;50.514;9.678;2023-05-03T05:41:15;99819.69;;;2.16;100.00
29903;BME280;30288;50.514;9.678;2023-05-03T05:43:20;99819.16;;;2.28;100.00
29903;BME280;30288;50.514;9.678;2023-05-03T05:45:26;99818.66;;;2.42;100.00
29903;BME280;30288;50.514;9.678;2023-05-03T05:47:32;99822.13;;;2.50;100.00
29903;BME280;30288;50.514;9.678;2023-05-03T05:49:37;99820.66;;;2.58;100.00
29903;BME280;30288;50.514;9.678;2023-05-03T05:51:43;99819.22;;;2.70;100.00
29903;BME280;30288;50.514;9.678;2023-05-03T05:53:51;99819.41;;;2.79;100.00
29903;BME280;30288;50.514;9.678;2023-05-03T05:55:57;99812.28;;;2.94;100.00
29903;BME280;30288;50.514;9.678;2023-05-03T05:58:06;99814.94;;;3.03;100.00
29903;BME280;30288;50.514;9.678;2023-05-03T06:00:19;99811.16;;;3.23;100.00
29903;BME280;30288;50.514;9.678;2023-05-03T06:02:25;99809.00;;;3.40;100.00
29903;BME280;30288;50.514;9.678;2023-05-03T06:04:31;99810.75;;;3.45;100.00
29903;BME280;30288;50.514;9.678;2023-05-03T06:06:37;99809.28;;;3.57;100.00
29903;BME280;30288;50.514;9.678;2023-05-03T06:08:42;99809.53;;;3.72;100.00
29903;BME280;30288;50.514;9.678;2023-05-03T06:10:53;99814.66;;;3.81;100.00
29903;BME280;30288;50.514;9.678;2023-05-03T06:13:01;99813.25;;;3.95;100.00
29903;BME280;30288;50.514;9.678;2023-05-03T06:15:08;99813.47;;;4.10;100.00
29903;BME280;30288;50.514;9.678;2023-05-03T06:17:14;99818.66;;;4.22;100.00
29903;BME280;30288;50.514;9.678;2023-05-03T06:19:19;99817.13;;;4.30;100.00
29903;BME280;30288;50.514;9.678;2023-05-03T06:21:26;99807.38;;;4.47;100.00
29903;BME280;30288;50.514;9.678;2023-05-03T06:23:33;99812.63;;;4.67;100.00
29903;BME280;30288;50.514;9.678;2023-05-03T06:25:38;99814.44;;;4.80;100.00
29903;BME280;30288;50.514;9.678;2023-05-03T06:27:46;99815.50;;;4.94;100.00
29903;BME280;30288;50.514;9.678;2023-05-03T06:29:55;99808.97;;;5.07;100.00
29903;BME280;30288;50.514;9.678;2023-05-03T06:32:00;99810.09;;;5.35;100.00
29903;BME280;30288;50.514;9.678;2023-05-03T06:34:06;99801.91;;;5.48;100.00
29903;BME280;30288;50.514;9.678;2023-05-03T06:36:14;99812.13;;;5.72;100.00
29903;BME280;30288;50.514;9.678;2023-05-03T06:38:19;99810.56;;;5.83;100.00
29903;BME280;30288;50.514;9.678;2023-05-03T06:40:24;99810.72;;;5.98;100.00
29903;BME280;30288;50.514;9.678;2023-05-03T06:42:30;99804.09;;;6.06;100.00
29903;BME280;30288;50.514;9.678;2023-05-03T06:44:55;99805.97;;;6.35;100.00
29903;BME280;30288;50.514;9.678;2023-05-03T06:47:01;99798.56;;;6.53;100.00
29903;BME280;30288;50.514;9.678;2023-05-03T06:49:06;99789.47;;;6.67;100.00
29903;BME280;30288;50.514;9.678;2023-05-03T06:51:12;99787.84;;;6.81;100.00
29903;BME280;30288;50.514;9.678;2023-05-03T06:53:17;99786.22;;;6.98;100.00
29903;BME280;30288;50.514;9.678;2023-05-03T06:55:22;99782.13;;;7.11;100.00
29903;BME280;30288;50.514;9.678;2023-05-03T06:57:27;99781.31;;;7.26;100.00
29903;BME280;30288;50.514;9.678;2023-05-03T06:59:33;99779.69;;;7.40;100.00
29903;BME280;30288;50.514;9.678;2023-05-03T07:01:40;99769.66;;;7.61;100.00
29903;BME280;30288;50.514;9.678;2023-05-03T07:03:45;99774.69;;;7.82;100.00
29903;BME280;30288;50.514;9.678;2023-05-03T07:05:51;99773.03;;;8.03;100.00
29903;BME280;30288;50.514;9.678;2023-05-03T07:07:56;99776.34;;;8.17;100.00
29903;BME280;30288;50.514;9.678;2023-05-03T07:10:02;99773.78;;;8.27;100.00
29903;BME280;30288;50.514;9.678;2023-05-03T07:12:07;99765.44;;;8.45;100.00
29903;BME280;30288;50.514;9.678;2023-05-03T07:14:13;99767.88;;;8.69;100.00
29903;BME280;30288;50.514;9.678;2023-05-03T07:16:18;99749.34;;;8.89;100.00
29903;BME280;30288;50.514;9.678;2023-05-03T07:18:26;99757.66;;;9.06;100.00
29903;BME280;30288;50.514;9.678;2023-05-03T07:20:31;99760.84;;;9.29;100.00
29903;BME280;30288;50.514;9.678;2023-05-03T07:22:37;99754.06;;;9.45;100.00
29903;BME280;30288;50.514;9.678;2023-05-03T07:24:42;99754.75;;;9.62;100.00
29903;BME280;30288;50.514;9.678;2023-05-03T07:26:47;99747.81;;;9.90;100.00
29903;BME280;30288;50.514;9.678;2023-05-03T07:28:52;99748.44;;;10.16;100.00
29903;BME280;30288;50.514;9.678;2023-05-03T07:30:57;99741.69;;;10.18;100.00
29903;BME280;30288;50.514;9.678;2023-05-03T07:33:03;99740.69;;;10.34;100.00
29903;BME280;30288;50.514;9.678;2023-05-03T07:35:12;99741.50;;;10.39;100.00
29903;BME280;30288;50.514;9.678;2023-05-03T07:37:18;99748.78;;;10.61;100.00
29903;BME280;30288;50.514;9.678;2023-05-03T07:39:24;99747.88;;;10.65;100.00
29903;BME280;30288;50.514;9.678;2023-05-03T07:41:29;99747.09;;;10.61;100.00
29903;BME280;30288;50.514;9.678;2023-05-03T07:43:34;99742.72;;;10.77;100.00
29903;BME280;30288;50.514;9.678;2023-05-03T07:45:39;99737.38;;;11.01;100.00
29903;BME280;30288;50.514;9.678;2023-05-03T07:47:45;99737.50;;;10.92;100.00
29903;BME280;30288;50.514;9.678;2023-05-03T07:49:50;99749.84;;;11.10;100.00
29903;BME280;30288;50.514;9.678;2023-05-03T07:51:58;99746.16;;;11.31;100.00
29903;BME280;30288;50.514;9.678;2023-05-03T07:54:03;99745.06;;;11.49;100.00
29903;BME280;30288;50.514;9.678;2023-05-03T07:56:08;99735.84;;;11.46;100.00
29903;BME280;30288;50.514;9.678;2023-05-03T07:58:14;99738.16;;;11.60;100.00
29903;BME280;30288;50.514;9.678;2023-05-03T08:00:29;99748.16;;;11.66;100.00
29903;BME280;30288;50.514;9.678;2023-05-03T08:02:34;99739.53;;;11.80;100.00
29903;BME280;30288;50.514;9.678;2023-05-03T08:04:40;99736.28;;;11.74;100.00
29903;BME280;30288;50.514;9.678;2023-05-03T08:06:45;99741.13;;;11.86;100.00
29903;BME280;30288;50.514;9.678;2023-05-03T08:08:53;99731.47;;;12.08;100.00
29903;BME280;30288;50.514;9.678;2023-05-03T08:10:58;99738.38;;;11.98;100.00
29903;BME280;30288;50.514;9.678;2023-05-03T08:13:04;99737.31;;;12.11;100.00
29903;BME280;30288;50.514;9.678;2023-05-03T08:15:09;99738.25;;;12.06;100.00
29903;BME280;30288;50.514;9.678;2023-05-03T08:17:15;99740.44;;;12.24;100.00
29903;BME280;30288;50.514;9.678;2023-05-03T08:19:20;99736.97;;;12.30;100.00
29903;BME280;30288;50.514;9.678;2023-05-03T08:21:25;99735.06;;;12.41;100.00
29903;BME280;30288;50.514;9.678;2023-05-03T08:23:31;99739.16;;;12.48;100.00
29903;BME280;30288;50.514;9.678;2023-05-03T08:25:39;99737.97;;;12.64;100.00
29903;BME280;30288;50.514;9.678;2023-05-03T08:27:44;99739.59;;;12.68;100.00
29903;BME280;30288;50.514;9.678;2023-05-03T08:29:49;99733.00;;;12.61;100.00
29903;BME280;30288;50.514;9.678;2023-05-03T08:31:54;99729.50;;;12.68;100.00
29903;BME280;30288;50.514;9.678;2023-05-03T08:34:00;99729.28;;;12.77;100.00
29903;BME280;30288;50.514;9.678;2023-05-03T08:36:06;99735.69;;;12.93;100.00
29903;BME280;30288;50.514;9.678;2023-05-03T08:38:12;99731.97;;;13.08;100.00
29903;BME280;30288;50.514;9.678;2023-05-03T08:40:20;99736.84;;;13.19;100.00
29903;BME280;30288;50.514;9.678;2023-05-03T08:42:28;99738.19;;;13.35;100.00
29903;BME280;30288;50.514;9.678;2023-05-03T08:44:36;99731.22;;;13.43;100.00
29903;BME280;30288;50.514;9.678;2023-05-03T08:46:45;99727.47;;;13.22;100.00
29903;BME280;30288;50.514;9.678;2023-05-03T08:48:52;99722.81;;;13.41;100.00
29903;BME280;30288;50.514;9.678;2023-05-03T08:50:59;99719.00;;;13.60;100.00
29903;BME280;30288;50.514;9.678;2023-05-03T08:53:09;99721.50;;;13.95;100.00
29903;BME280;30288;50.514;9.678;2023-05-03T08:55:14;99708.72;;;13.98;100.00
29903;BME280;30288;50.514;9.678;2023-05-03T08:57:22;99719.91;;;13.91;100.00
29903;BME280;30288;50.514;9.678;2023-05-03T08:59:30;99710.78;;;14.17;100.00
29903;BME280;30288;50.514;9.678;2023-05-03T09:01:36;99716.81;;;14.13;100.00
29903;BME280;30288;50.514;9.678;2023-05-03T09:03:48;99712.34;;;14.21;100.00
29903;BME280;30288;50.514;9.678;2023-05-03T09:05:54;99714.88;;;14.21;100.00
29903;BME280;30288;50.514;9.678;2023-05-03T09:08:05;99713.69;;;14.34;100.00
29903;BME280;30288;50.514;9.678;2023-05-03T09:10:21;99707.66;;;14.39;100.00
29903;BME280;30288;50.514;9.678;2023-05-03T09:12:35;99710.84;;;14.46;100.00
29903;BME280;30288;50.514;9.678;2023-05-03T09:14:45;99706.63;;;14.76;100.00
29903;BME280;30288;50.514;9.678;2023-05-03T09:16:52;99710.88;;;14.44;100.00
29903;BME280;30288;50.514;9.678;2023-05-03T09:18:59;99706.38;;;14.54;100.00
29903;BME280;30288;50.514;9.678;2023-05-03T09:21:04;99704.56;;;14.59;100.00
29903;BME280;30288;50.514;9.678;2023-05-03T09:23:09;99701.72;;;14.70;100.00
29903;BME280;30288;50.514;9.678;2023-05-03T09:25:15;99705.69;;;14.78;100.00
29903;BME280;30288;50.514;9.678;2023-05-03T09:27:23;99704.78;;;14.81;100.00
29903;BME280;30288;50.514;9.678;2023-05-03T09:29:30;99703.28;;;15.02;100.00
29903;BME280;30288;50.514;9.678;2023-05-03T09:31:57;99701.13;;;14.89;100.00
29903;BME280;30288;50.514;9.678;2023-05-03T09:34:21;99703.28;;;15.02;100.00
29903;BME280;30288;50.514;9.678;2023-05-03T09:36:26;99701.94;;;15.18;100.00
29903;BME280;30288;50.514;9.678;2023-05-03T09:38:34;99702.81;;;15.17;100.00
29903;BME280;30288;50.514;9.678;2023-05-03T09:40:45;99699.44;;;14.90;100.00
29903;BME280;30288;50.514;9.678;2023-05-03T09:43:05;99700.63;;;15.06;100.00
29903;BME280;30288;50.514;9.678;2023-05-03T09:45:10;99702.25;;;15.35;100.00
29903;BME280;30288;50.514;9.678;2023-05-03T09:47:19;99697.16;;;15.35;100.00
29903;BME280;30288;50.514;9.678;2023-05-03T09:49:26;99700.56;;;15.62;100.00
29903;BME280;30288;50.514;9.678;2023-05-03T09:51:32;99698.06;;;15.60;100.00
29903;BME280;30288;50.514;9.678;2023-05-03T09:53:39;99699.53;;;15.67;100.00
29903;BME280;30288;50.514;9.678;2023-05-03T09:55:44;99700.66;;;15.84;100.00
29903;BME280;30288;50.514;9.678;2023-05-03T09:57:52;99701.19;;;15.93;100.00
29903;BME280;30288;50.514;9.678;2023-05-03T09:59:59;99702.06;;;16.17;100.00
29903;BME280;30288;50.514;9.678;2023-05-03T10:02:12;99700.03;;;16.02;100.00
29903;BME280;30288;50.514;9.678;2023-05-03T10:04:25;99694.63;;;16.11;92.45
29903;BME280;30288;50.514;9.678;2023-05-03T10:06:34;99685.09;;;16.17;92.59
29903;BME280;30288;50.514;9.678;2023-05-03T10:08:41;99687.69;;;16.16;96.34
29903;BME280;30288;50.514;9.678;2023-05-03T10:10:51;99693.00;;;16.10;100.00
29903;BME280;30288;50.514;9.678;2023-05-03T10:12:57;99689.84;;;16.03;98.29
29903;BME280;30288;50.514;9.678;2023-05-03T10:15:05;99680.84;;;16.18;97.87
29903;BME280;30288;50.514;9.678;2023-05-03T10:17:17;99682.72;;;16.13;97.35
29903;BME280;30288;50.514;9.678;2023-05-03T10:19:46;99673.00;;;16.47;97.62
29903;BME280;30288;50.514;9.678;2023-05-03T10:22:02;99672.47;;;16.63;88.63
29903;BME280;30288;50.514;9.678;2023-05-03T10:24:11;99666.75;;;16.56;95.91
29903;BME280;30288;50.514;9.678;2023-05-03T10:26:17;99667.88;;;16.72;90.66
29903;BME280;30288;50.514;9.678;2023-05-03T10:28:23;99666.69;;;16.81;93.80
29903;BME280;30288;50.514;9.678;2023-05-03T10:30:30;99664.53;;;16.92;96.31
29903;BME280;30288;50.514;9.678;2023-05-03T10:32:37;99661.38;;;16.87;93.17
29903;BME280;30288;50.514;9.678;2023-05-03T10:34:47;99653.66;;;16.67;90.54
29903;BME280;30288;50.514;9.678;2023-05-03T10:37:02;99662.16;;;16.66;92.91
29903;BME280;30288;50.514;9.678;2023-05-03T10:39:13;99665.97;;;16.99;97.15
29903;BME280;30288;50.514;9.678;2023-05-03T10:41:23;99662.19;;;17.09;88.93
29903;BME280;30288;50.514;9.678;2023-05-03T10:43:42;99668.09;;;16.88;93.56
29903;BME280;30288;50.514;9.678;2023-05-03T10:45:50;99657.31;;;17.03;86.88
29903;BME280;30288;50.514;9.678;2023-05-03T10:48:17;99661.81;;;17.18;90.21
29903;BME280;30288;50.514;9.678;2023-05-03T10:50:30;99649.69;;;17.03;88.45
29903;BME280;30288;50.514;9.678;2023-05-03T10:52:46;99646.38;;;17.01;87.84
29903;BME280;30288;50.514;9.678;2023-05-03T10:54:51;99644.91;;;17.37;91.28
29903;BME280;30288;50.514;9.678;2023-05-03T10:56:57;99642.66;;;17.72;99.81
29903;BME280;30288;50.514;9.678;2023-05-03T10:59:03;99640.03;;;17.92;90.11
29903;BME280;30288;50.514;9.678;2023-05-03T11:01:10;99635.25;;;18.05;89.04
29903;BME280;30288;50.514;9.678;2023-05-03T11:03:48;99633.22;;;17.92;84.60
29903;BME280;30288;50.514;9.678;2023-05-03T11:05:58;99633.31;;;17.91;90.96
29903;BME280;30288;50.514;9.678;2023-05-03T11:08:09;99626.38;;;18.13;80.47
29903;BME280;30288;50.514;9.678;2023-05-03T11:10:16;99626.59;;;18.27;81.58
29903;BME280;30288;50.514;9.678;2023-05-03T11:12:21;99640.31;;;18.44;91.93
29903;BME280;30288;50.514;9.678;2023-05-03T11:14:26;99638.56;;;18.63;98.26